Barney, Alabama
Current Conditions -  °F | °C
As of 9:55 AM on Sunday 21 Dec 2014 (Local Time) from KJFX Reporting Station
Haze Haze  
Wind Chill: 46°   Ceiling: 2900
Heat Index: 46°   Visibility: 5mi
Dew Point: 43°   Wind: 0mph
Humidity: 87%   Direction: NA
Pressure: 30.21"   Gusts: NA
Location:  33.7521°N, 87.1847°W
Report Text: KJFX 211555Z AUTO 00000KT 5SM HZ OVC029 08/06 A3021 RMK A02 P-128
Loading
Personal Weather Stations






























Interactive Weather Map New forecast layout! Learn more

10-Day Weather Forecast

Advertisements
Track Severe Weather on mobile